Aviation Digital Data Service (ADDS)

Output produced by METARs form (0148 UTC 24 May 2019)
found at http://www.aviationweather.gov/metar/data/
 
LLBG 240120Z VRB03KT CAVOK 27/07 Q1006 NOSIG
TAF LLBG 232311Z 2400/2424 12005KT CAVOK 
     PROB30 2403/2405 5000 FU 
     BECMG 2405/2407 24012KT 
     BECMG 2410/2412 32010KT 
     BECMG 2416/2418 VRB04KT 
     PROB30 2423/2424 5000 BR BKN005 TX42/2408Z TN27/2402Z
       
TAF LLHA 232323Z 2400/2424 13006KT CAVOK 
     BECMG 2407/2409 25010KT 
     PROB40 2409/2412 28018KT 
     BECMG 2421/2423 VRB04KT TX37/2408Z TN25/2403Z
       
LLSD 232050Z 10007KT CAVOK 31/08 Q1007
TAF LLSD 232321Z 2400/2424 13007KT CAVOK 
     PROB30 2403/2405 5000 FU 
     BECMG 2405/2407 24014KT 
     BECMG 2410/2412 32010KT 
     BECMG 2416/2418 VRB04KT 
     PROB40 2423/2424 5000 BR BKN005 TX36/2408Z TN26/2402Z